Orange City, IA

8:21 AM CDT on August 22, 2017 (GMT -0500)
Orange City Municipal

Weather History for KORC - September, 2012

Change the Weather History Date:

Monday, September 24, 2012

  Actual Average Record
Temperature  
Mean Temperature 59 °F -  
Max Temperature 77 °F 70 °F 86 °F (2016)
Min Temperature 41 °F 47 °F 36 °F (1950)
Degree Days  
Heating Degree Days 6    
Growing Degree Days 9 (Base 50)    
Moisture  
Dew Point 33 °F    
Average Humidity 42    
Maximum Humidity 71    
Minimum Humidity 21    
Precipitation  
Precipitation 0.00 in - - ()
Sea Level Pressure  
Sea Level Pressure 29.98 in    
Wind  
Wind Speed 7 mph (SSW)    
Max Wind Speed 20 mph    
Max Gust Speed 24 mph    
Visibility 10 miles    
Events      
Averages and records for this station are not official NWS values.
T = Trace of Precipitation, MM = Missing Value Source: NWS Daily Summary

Daily Weather History Graph

Daily Weather History Graph

Search for Another Location

Airport or City:

Trip Planner

Search our weather history database for the weather conditions in past years. The results will help you decide how hot, cold, wet, or windy it might be!

Date:

Astronomy

Sep. 24, 2012 Rise Set
Actual Time 7:14 AM CDT 7:17 PM CDT
Civil Twilight 6:46 AM CDT 7:45 PM CDT
Nautical Twilight 6:12 AM CDT 8:18 PM CDT
Astronomical Twilight 5:39 AM CDT 8:51 PM CDT
Moon 4:10 PM CDT (9/24) 1:24 AM CDT (9/24)
Length of Visible Light 12h 59m
Length of Day
12h 02m
Waxing Gibbous, 71% of the Moon is Illuminated
Sep 24
Waxing Gibbous
Sep 29
Full
Oct 8
Last Quarter
Oct 15
New
Oct 21
First Quarter

Hourly Weather History & Observations

Time (CDT) Temp. Windchill Dew Point Humidity Pressure Visibility Wind Dir Wind Speed Gust Speed Precip Events Conditions
12:15 AM 46.4 °F 45.2 °F 24.8 °F 43% 30.18 in 10.0 mi SE 3.5 mph - N/A   Clear
12:35 AM 46.4 °F 45.2 °F 24.8 °F 43% 30.17 in 10.0 mi SSE 3.5 mph - N/A   Clear
12:55 AM 46.4 °F 44.3 °F 24.8 °F 43% 30.17 in 10.0 mi SSE 4.6 mph - N/A   Clear
1:15 AM 46.4 °F 45.2 °F 26.6 °F 46% 30.16 in 10.0 mi SE 3.5 mph - N/A   Clear
1:55 AM 46.4 °F 43.5 °F 24.8 °F 43% 30.16 in 10.0 mi SSE 5.8 mph - N/A   Clear
2:35 AM 44.6 °F 43.1 °F 26.6 °F 49% 30.14 in 10.0 mi SSE 3.5 mph - N/A   Clear
2:55 AM 44.6 °F 43.1 °F 26.6 °F 49% 30.14 in 10.0 mi SSE 3.5 mph - N/A   Clear
3:15 AM 44.6 °F 42.2 °F 26.6 °F 49% 30.13 in 10.0 mi South 4.6 mph - N/A   Clear
3:35 AM 44.6 °F 41.4 °F 26.6 °F 49% 30.12 in 10.0 mi South 5.8 mph - N/A   Clear
3:55 AM 44.6 °F 42.2 °F 26.6 °F 49% 30.11 in 10.0 mi South 4.6 mph - N/A   Clear
4:15 AM 44.6 °F 43.1 °F 28.4 °F 53% 30.11 in 10.0 mi South 3.5 mph - N/A   Clear
4:35 AM 42.8 °F 41.1 °F 28.4 °F 57% 30.10 in 10.0 mi South 3.5 mph - N/A   Clear
4:55 AM 42.8 °F 40.1 °F 28.4 °F 57% 30.09 in 10.0 mi South 4.6 mph - N/A   Clear
5:15 AM 41.0 °F 38.0 °F 28.4 °F 61% 30.08 in 10.0 mi South 4.6 mph - N/A   Clear
5:35 AM 42.8 °F 41.1 °F 28.4 °F 57% 30.08 in 10.0 mi South 3.5 mph - N/A   Clear
5:55 AM 42.8 °F 40.1 °F 30.2 °F 61% 30.07 in 10.0 mi South 4.6 mph - N/A   Clear
6:15 AM 42.8 °F 40.1 °F 30.2 °F 61% 30.06 in 10.0 mi South 4.6 mph - N/A   Clear
6:35 AM 42.8 °F 40.1 °F 30.2 °F 61% 30.06 in 10.0 mi South 4.6 mph - N/A   Clear
6:55 AM 42.8 °F 39.3 °F 32.0 °F 66% 30.05 in 10.0 mi South 5.8 mph - N/A   Clear
7:15 AM 42.8 °F 39.3 °F 32.0 °F 66% 30.05 in 10.0 mi South 5.8 mph - N/A   Clear
7:35 AM 42.8 °F 41.1 °F 32.0 °F 66% 30.05 in 10.0 mi South 3.5 mph - N/A   Clear
7:55 AM 42.8 °F 40.1 °F 33.8 °F 70% 30.05 in 10.0 mi South 4.6 mph - N/A   Clear
8:15 AM 44.6 °F 41.4 °F 35.6 °F 71% 30.05 in 7.0 mi SSW 5.8 mph - N/A   Clear
8:35 AM 48.2 °F - 35.6 °F 62% 30.05 in 10.0 mi SSW 5.8 mph - N/A   Clear
8:55 AM 51.8 °F - 35.6 °F 54% 30.05 in 10.0 mi SSW 9.2 mph - N/A   Clear
9:15 AM 53.6 °F - 33.8 °F 47% 30.05 in 10.0 mi SW 12.7 mph - N/A   Clear
9:35 AM 55.4 °F - 35.6 °F 47% 30.05 in 10.0 mi SW 13.8 mph 21.9 mph N/A   Clear
9:55 AM 57.2 °F - 35.6 °F 44% 30.04 in 10.0 mi SW 13.8 mph 18.4 mph N/A   Clear
10:15 AM 57.2 °F - 35.6 °F 44% 30.04 in 10.0 mi SW 13.8 mph - N/A   Clear
10:35 AM 60.8 °F - 33.8 °F 36% 30.04 in 10.0 mi SW 15.0 mph 18.4 mph N/A   Clear
10:55 AM 62.6 °F - 33.8 °F 34% 30.03 in 10.0 mi SW 15.0 mph 20.7 mph N/A   Clear
11:15 AM 64.4 °F - 33.8 °F 32% 30.02 in 10.0 mi SW 16.1 mph 23.0 mph N/A   Clear
11:35 AM 66.2 °F - 32.0 °F 28% 30.01 in 10.0 mi SW 15.0 mph 20.7 mph N/A   Clear
11:55 AM 66.2 °F - 30.2 °F 26% 30.00 in 10.0 mi SW 16.1 mph 23.0 mph N/A   Clear
12:15 PM 68.0 °F - 32.0 °F 26% 29.98 in 10.0 mi SSW 18.4 mph - N/A   Clear
12:35 PM 69.8 °F - 30.2 °F 23% 29.97 in 10.0 mi SSW 16.1 mph 20.7 mph N/A   Clear
12:55 PM 71.6 °F - 30.2 °F 22% 29.96 in 10.0 mi SW 17.3 mph 21.9 mph N/A   Clear
1:15 PM 71.6 °F - 30.2 °F 22% 29.95 in 10.0 mi SSW 19.6 mph 24.2 mph N/A   Clear
1:55 PM 73.4 °F - 32.0 °F 22% 29.92 in 10.0 mi SW 17.3 mph 23.0 mph N/A   Clear
2:15 PM 73.4 °F - 33.8 °F 23% 29.90 in 10.0 mi SW 13.8 mph - N/A   Clear
2:35 PM 73.4 °F - 33.8 °F 23% 29.89 in 10.0 mi SW 13.8 mph 20.7 mph N/A   Clear
2:55 PM 75.2 °F - 33.8 °F 22% 29.89 in 10.0 mi SW 17.3 mph 24.2 mph N/A   Clear
3:15 PM 77.0 °F - 35.6 °F 22% 29.88 in 10.0 mi SW 13.8 mph - N/A   Clear
3:35 PM 77.0 °F - 35.6 °F 22% 29.87 in 10.0 mi West 13.8 mph 19.6 mph N/A   Clear
3:55 PM 77.0 °F - 35.6 °F 22% 29.86 in 10.0 mi WSW 11.5 mph 21.9 mph N/A   Clear
4:15 PM 77.0 °F - 33.8 °F 21% 29.85 in 10.0 mi WSW 12.7 mph - N/A   Clear
4:35 PM 77.0 °F - 35.6 °F 22% 29.85 in 10.0 mi WSW 9.2 mph 17.3 mph N/A   Clear
4:55 PM 77.0 °F - 33.8 °F 21% 29.84 in 10.0 mi West 9.2 mph 16.1 mph N/A   Clear
5:15 PM 77.0 °F - 35.6 °F 22% 29.84 in 10.0 mi SW 10.4 mph - N/A   Clear
5:35 PM 75.2 °F - 35.6 °F 24% 29.84 in 10.0 mi WSW 11.5 mph - N/A   Clear
5:55 PM 75.2 °F - 35.6 °F 24% 29.84 in 10.0 mi WSW 8.1 mph - N/A   Clear
6:15 PM 75.2 °F - 35.6 °F 24% 29.84 in 10.0 mi SW 8.1 mph - N/A   Clear
6:35 PM 71.6 °F - 37.4 °F 29% 29.84 in 10.0 mi SW 6.9 mph - N/A   Clear
6:55 PM 69.8 °F - 37.4 °F 31% 29.84 in 10.0 mi SW 5.8 mph - N/A   Clear
7:15 PM 68.0 °F - 35.6 °F 30% 29.84 in 10.0 mi SW 4.6 mph - N/A   Clear
7:55 PM 64.4 °F - 37.4 °F 37% 29.84 in 10.0 mi South 4.6 mph - N/A   Clear
8:15 PM 62.6 °F - 39.2 °F 42% 29.84 in 10.0 mi SSW 5.8 mph - N/A   Clear
8:35 PM 60.8 °F - 39.2 °F 45% 29.84 in 10.0 mi SSW 5.8 mph - N/A   Clear
8:55 PM 57.2 °F - 39.2 °F 51% 29.84 in 10.0 mi SSW 5.8 mph - N/A   Clear
9:15 PM 59.0 °F - 39.2 °F 48% 29.84 in 10.0 mi SSW 6.9 mph - N/A   Clear
9:35 PM 59.0 °F - 39.2 °F 48% 29.84 in 10.0 mi SSW 6.9 mph - N/A   Clear
9:55 PM 57.2 °F - 39.2 °F 51% 29.85 in 10.0 mi SSW 6.9 mph - N/A   Clear
10:15 PM 57.2 °F - 39.2 °F 51% 29.85 in 10.0 mi SSW 5.8 mph - N/A   Clear
10:35 PM 55.4 °F - 39.2 °F 54% 29.85 in 10.0 mi South 5.8 mph - N/A   Clear
10:55 PM 55.4 °F - 39.2 °F 54% 29.85 in 10.0 mi SSW 5.8 mph - N/A   Clear
11:55 PM 53.6 °F - 41.0 °F 62% 29.85 in 10.0 mi SSW 3.5 mph - N/A   Clear